sensor_id;sensor_type;location;lat;lon;timestamp;P1;durP1;ratioP1;P2;durP2;ratioP2
789;SDS011;378;48.844;9.156;2023-03-01T00:02:21;29.80;;;11.83;;
789;SDS011;378;48.844;9.156;2023-03-01T00:04:49;25.87;;;11.73;;
789;SDS011;378;48.844;9.156;2023-03-01T00:07:16;25.07;;;11.87;;
789;SDS011;378;48.844;9.156;2023-03-01T00:09:43;26.93;;;12.57;;
789;SDS011;378;48.844;9.156;2023-03-01T00:12:10;22.43;;;11.97;;
789;SDS011;378;48.844;9.156;2023-03-01T00:14:37;23.30;;;12.10;;
789;SDS011;378;48.844;9.156;2023-03-01T00:17:05;26.13;;;11.83;;
789;SDS011;378;48.844;9.156;2023-03-01T00:19:32;24.10;;;11.50;;
789;SDS011;378;48.844;9.156;2023-03-01T00:22:00;25.30;;;11.40;;
789;SDS011;378;48.844;9.156;2023-03-01T00:24:27;25.60;;;11.73;;
789;SDS011;378;48.844;9.156;2023-03-01T00:26:54;27.93;;;11.63;;
789;SDS011;378;48.844;9.156;2023-03-01T00:29:21;27.30;;;11.63;;
789;SDS011;378;48.844;9.156;2023-03-01T00:31:48;21.90;;;11.43;;
789;SDS011;378;48.844;9.156;2023-03-01T00:34:15;27.00;;;12.25;;
789;SDS011;378;48.844;9.156;2023-03-01T00:36:42;23.87;;;11.73;;
789;SDS011;378;48.844;9.156;2023-03-01T00:39:11;29.37;;;12.23;;
789;SDS011;378;48.844;9.156;2023-03-01T00:41:40;21.83;;;11.33;;
789;SDS011;378;48.844;9.156;2023-03-01T00:44:07;23.67;;;11.00;;
789;SDS011;378;48.844;9.156;2023-03-01T00:46:35;26.60;;;12.33;;
789;SDS011;378;48.844;9.156;2023-03-01T00:49:02;27.38;;;14.77;;
789;SDS011;378;48.844;9.156;2023-03-01T00:51:29;28.43;;;13.17;;
789;SDS011;378;48.844;9.156;2023-03-01T00:53:57;27.87;;;12.03;;
789;SDS011;378;48.844;9.156;2023-03-01T00:56:27;25.37;;;11.10;;
789;SDS011;378;48.844;9.156;2023-03-01T00:58:54;25.30;;;12.43;;
789;SDS011;378;48.844;9.156;2023-03-01T01:01:22;23.07;;;11.60;;
789;SDS011;378;48.844;9.156;2023-03-01T01:03:53;24.70;;;12.37;;
789;SDS011;378;48.844;9.156;2023-03-01T01:06:23;22.37;;;11.13;;
789;SDS011;378;48.844;9.156;2023-03-01T01:08:51;28.10;;;14.43;;
789;SDS011;378;48.844;9.156;2023-03-01T01:11:19;25.67;;;12.37;;
789;SDS011;378;48.844;9.156;2023-03-01T01:13:48;25.77;;;12.30;;
789;SDS011;378;48.844;9.156;2023-03-01T01:16:16;23.50;;;11.83;;
789;SDS011;378;48.844;9.156;2023-03-01T01:18:44;25.57;;;12.23;;
789;SDS011;378;48.844;9.156;2023-03-01T01:21:13;27.57;;;11.93;;
789;SDS011;378;48.844;9.156;2023-03-01T01:23:42;26.73;;;11.80;;
789;SDS011;378;48.844;9.156;2023-03-01T01:26:10;27.43;;;12.20;;
789;SDS011;378;48.844;9.156;2023-03-01T01:28:39;25.57;;;11.53;;
789;SDS011;378;48.844;9.156;2023-03-01T01:31:08;27.60;;;12.53;;
789;SDS011;378;48.844;9.156;2023-03-01T01:33:35;26.93;;;12.37;;
789;SDS011;378;48.844;9.156;2023-03-01T01:36:03;24.53;;;12.23;;
789;SDS011;378;48.844;9.156;2023-03-01T01:38:30;26.83;;;12.70;;
789;SDS011;378;48.844;9.156;2023-03-01T01:40:57;30.50;;;15.60;;
789;SDS011;378;48.844;9.156;2023-03-01T01:43:26;26.87;;;12.77;;
789;SDS011;378;48.844;9.156;2023-03-01T01:45:55;28.80;;;13.03;;
789;SDS011;378;48.844;9.156;2023-03-01T01:48:27;29.17;;;12.87;;
789;SDS011;378;48.844;9.156;2023-03-01T01:51:05;28.07;;;12.83;;
789;SDS011;378;48.844;9.156;2023-03-01T01:53:35;26.60;;;12.77;;
789;SDS011;378;48.844;9.156;2023-03-01T01:56:05;31.50;;;12.67;;
789;SDS011;378;48.844;9.156;2023-03-01T01:58:34;27.87;;;11.63;;
789;SDS011;378;48.844;9.156;2023-03-01T02:01:01;27.83;;;12.63;;
789;SDS011;378;48.844;9.156;2023-03-01T02:03:32;27.97;;;12.33;;
789;SDS011;378;48.844;9.156;2023-03-01T02:06:03;34.03;;;13.07;;
789;SDS011;378;48.844;9.156;2023-03-01T02:08:33;29.40;;;13.23;;
789;SDS011;378;48.844;9.156;2023-03-01T02:11:03;27.63;;;12.10;;
789;SDS011;378;48.844;9.156;2023-03-01T02:13:31;28.88;;;14.10;;
789;SDS011;378;48.844;9.156;2023-03-01T02:16:00;28.93;;;13.47;;
789;SDS011;378;48.844;9.156;2023-03-01T02:18:29;33.03;;;14.00;;
789;SDS011;378;48.844;9.156;2023-03-01T02:21:01;26.90;;;13.30;;
789;SDS011;378;48.844;9.156;2023-03-01T02:23:36;30.53;;;14.00;;
789;SDS011;378;48.844;9.156;2023-03-01T02:26:05;33.15;;;17.23;;
789;SDS011;378;48.844;9.156;2023-03-01T02:28:38;29.07;;;14.30;;
789;SDS011;378;48.844;9.156;2023-03-01T02:31:07;32.03;;;13.87;;
789;SDS011;378;48.844;9.156;2023-03-01T02:33:54;27.53;;;12.97;;
789;SDS011;378;48.844;9.156;2023-03-01T02:36:22;27.97;;;12.47;;
789;SDS011;378;48.844;9.156;2023-03-01T02:38:52;29.17;;;13.50;;
789;SDS011;378;48.844;9.156;2023-03-01T02:41:22;29.93;;;12.13;;
789;SDS011;378;48.844;9.156;2023-03-01T02:43:52;24.80;;;11.63;;
789;SDS011;378;48.844;9.156;2023-03-01T02:46:20;28.53;;;13.03;;
789;SDS011;378;48.844;9.156;2023-03-01T02:48:50;32.27;;;13.30;;
789;SDS011;378;48.844;9.156;2023-03-01T02:51:23;27.67;;;12.53;;
789;SDS011;378;48.844;9.156;2023-03-01T02:54:00;28.20;;;12.90;;
789;SDS011;378;48.844;9.156;2023-03-01T02:56:38;25.80;;;11.87;;
789;SDS011;378;48.844;9.156;2023-03-01T02:59:06;28.20;;;12.60;;
789;SDS011;378;48.844;9.156;2023-03-01T03:01:34;27.70;;;12.63;;
789;SDS011;378;48.844;9.156;2023-03-01T03:04:03;33.57;;;13.73;;
789;SDS011;378;48.844;9.156;2023-03-01T03:06:31;32.23;;;13.13;;
789;SDS011;378;48.844;9.156;2023-03-01T03:08:58;27.10;;;12.63;;
789;SDS011;378;48.844;9.156;2023-03-01T03:11:24;28.53;;;12.43;;
789;SDS011;378;48.844;9.156;2023-03-01T03:13:52;24.43;;;12.33;;
789;SDS011;378;48.844;9.156;2023-03-01T03:16:20;29.10;;;13.10;;
789;SDS011;378;48.844;9.156;2023-03-01T03:18:47;27.07;;;12.87;;
789;SDS011;378;48.844;9.156;2023-03-01T03:21:14;27.57;;;12.73;;
789;SDS011;378;48.844;9.156;2023-03-01T03:23:42;30.83;;;12.67;;
789;SDS011;378;48.844;9.156;2023-03-01T03:26:09;30.33;;;13.50;;
789;SDS011;378;48.844;9.156;2023-03-01T03:28:38;27.87;;;12.97;;
789;SDS011;378;48.844;9.156;2023-03-01T03:31:06;27.50;;;12.73;;
789;SDS011;378;48.844;9.156;2023-03-01T03:33:34;29.67;;;15.63;;
789;SDS011;378;48.844;9.156;2023-03-01T03:36:01;28.73;;;13.90;;
789;SDS011;378;48.844;9.156;2023-03-01T03:38:29;28.00;;;13.83;;
789;SDS011;378;48.844;9.156;2023-03-01T03:40:59;31.70;;;14.00;;
789;SDS011;378;48.844;9.156;2023-03-01T03:43:28;33.03;;;13.90;;
789;SDS011;378;48.844;9.156;2023-03-01T03:45:56;31.63;;;14.17;;
789;SDS011;378;48.844;9.156;2023-03-01T03:48:23;28.37;;;12.60;;
789;SDS011;378;48.844;9.156;2023-03-01T03:50:52;32.90;;;13.20;;
789;SDS011;378;48.844;9.156;2023-03-01T03:53:21;31.05;;;13.82;;
789;SDS011;378;48.844;9.156;2023-03-01T03:55:48;31.90;;;13.60;;
789;SDS011;378;48.844;9.156;2023-03-01T03:58:16;26.53;;;12.97;;
789;SDS011;378;48.844;9.156;2023-03-01T04:00:46;28.17;;;12.87;;
789;SDS011;378;48.844;9.156;2023-03-01T04:03:14;32.03;;;13.90;;
789;SDS011;378;48.844;9.156;2023-03-01T04:05:43;27.97;;;13.13;;
789;SDS011;378;48.844;9.156;2023-03-01T04:08:12;26.17;;;13.00;;
789;SDS011;378;48.844;9.156;2023-03-01T04:10:39;31.43;;;13.10;;
789;SDS011;378;48.844;9.156;2023-03-01T04:13:09;26.90;;;12.67;;
789;SDS011;378;48.844;9.156;2023-03-01T04:15:37;31.63;;;13.53;;
789;SDS011;378;48.844;9.156;2023-03-01T04:18:05;29.63;;;13.63;;
789;SDS011;378;48.844;9.156;2023-03-01T04:20:33;29.27;;;12.67;;
789;SDS011;378;48.844;9.156;2023-03-01T04:23:02;28.63;;;12.93;;
789;SDS011;378;48.844;9.156;2023-03-01T04:25:37;29.87;;;13.57;;
789;SDS011;378;48.844;9.156;2023-03-01T04:28:05;36.53;;;17.87;;
789;SDS011;378;48.844;9.156;2023-03-01T04:30:32;32.00;;;15.33;;
789;SDS011;378;48.844;9.156;2023-03-01T04:33:01;30.63;;;14.53;;
789;SDS011;378;48.844;9.156;2023-03-01T04:35:29;27.30;;;12.67;;
789;SDS011;378;48.844;9.156;2023-03-01T04:37:56;30.00;;;15.13;;
789;SDS011;378;48.844;9.156;2023-03-01T04:40:23;26.93;;;13.57;;
789;SDS011;378;48.844;9.156;2023-03-01T04:42:51;29.60;;;12.57;;
789;SDS011;378;48.844;9.156;2023-03-01T04:45:18;31.03;;;13.73;;
789;SDS011;378;48.844;9.156;2023-03-01T04:47:45;34.33;;;12.83;;
789;SDS011;378;48.844;9.156;2023-03-01T04:50:13;30.03;;;12.77;;
789;SDS011;378;48.844;9.156;2023-03-01T04:52:42;30.37;;;13.33;;
789;SDS011;378;48.844;9.156;2023-03-01T04:55:09;30.43;;;13.57;;
789;SDS011;378;48.844;9.156;2023-03-01T04:57:36;29.20;;;14.53;;
789;SDS011;378;48.844;9.156;2023-03-01T05:00:06;33.17;;;13.43;;
789;SDS011;378;48.844;9.156;2023-03-01T05:02:45;30.10;;;13.90;;
789;SDS011;378;48.844;9.156;2023-03-01T05:05:18;30.17;;;13.83;;
789;SDS011;378;48.844;9.156;2023-03-01T05:07:46;30.50;;;13.70;;
789;SDS011;378;48.844;9.156;2023-03-01T05:10:13;31.20;;;15.23;;
789;SDS011;378;48.844;9.156;2023-03-01T05:12:41;33.20;;;14.03;;
789;SDS011;378;48.844;9.156;2023-03-01T05:15:09;32.87;;;14.03;;
789;SDS011;378;48.844;9.156;2023-03-01T05:17:36;30.30;;;13.20;;
789;SDS011;378;48.844;9.156;2023-03-01T05:20:03;30.67;;;13.77;;
789;SDS011;378;48.844;9.156;2023-03-01T05:22:33;31.33;;;13.80;;
789;SDS011;378;48.844;9.156;2023-03-01T05:25:00;26.60;;;13.13;;
789;SDS011;378;48.844;9.156;2023-03-01T05:27:27;30.53;;;13.73;;
789;SDS011;378;48.844;9.156;2023-03-01T05:29:54;32.47;;;13.97;;
789;SDS011;378;48.844;9.156;2023-03-01T05:32:22;35.28;;;17.70;;
789;SDS011;378;48.844;9.156;2023-03-01T05:34:49;33.83;;;15.30;;
789;SDS011;378;48.844;9.156;2023-03-01T05:37:17;34.27;;;14.37;;
789;SDS011;378;48.844;9.156;2023-03-01T05:39:44;33.47;;;14.30;;
789;SDS011;378;48.844;9.156;2023-03-01T05:42:11;32.30;;;14.13;;
789;SDS011;378;48.844;9.156;2023-03-01T05:44:38;28.77;;;13.53;;
789;SDS011;378;48.844;9.156;2023-03-01T05:47:05;27.73;;;13.93;;
789;SDS011;378;48.844;9.156;2023-03-01T05:49:33;27.37;;;13.27;;
789;SDS011;378;48.844;9.156;2023-03-01T05:52:00;30.30;;;14.17;;
789;SDS011;378;48.844;9.156;2023-03-01T05:54:27;31.53;;;14.07;;
789;SDS011;378;48.844;9.156;2023-03-01T05:56:54;28.43;;;13.27;;
789;SDS011;378;48.844;9.156;2023-03-01T05:59:21;30.03;;;13.57;;
789;SDS011;378;48.844;9.156;2023-03-01T06:01:48;29.07;;;13.43;;
789;SDS011;378;48.844;9.156;2023-03-01T06:04:15;33.78;;;16.98;;
789;SDS011;378;48.844;9.156;2023-03-01T06:06:43;26.37;;;14.17;;
789;SDS011;378;48.844;9.156;2023-03-01T06:09:10;34.90;;;14.53;;
789;SDS011;378;48.844;9.156;2023-03-01T06:11:36;31.63;;;13.87;;
789;SDS011;378;48.844;9.156;2023-03-01T06:14:03;27.90;;;14.23;;
789;SDS011;378;48.844;9.156;2023-03-01T06:16:32;32.73;;;14.60;;
789;SDS011;378;48.844;9.156;2023-03-01T06:18:59;33.53;;;14.53;;
789;SDS011;378;48.844;9.156;2023-03-01T06:21:26;31.70;;;14.10;;
789;SDS011;378;48.844;9.156;2023-03-01T06:23:54;35.67;;;16.87;;
789;SDS011;378;48.844;9.156;2023-03-01T06:26:21;30.67;;;14.63;;
789;SDS011;378;48.844;9.156;2023-03-01T06:28:48;34.23;;;15.03;;
789;SDS011;378;48.844;9.156;2023-03-01T06:31:15;29.47;;;14.87;;
789;SDS011;378;48.844;9.156;2023-03-01T06:33:42;33.70;;;15.37;;
789;SDS011;378;48.844;9.156;2023-03-01T06:36:10;35.37;;;14.97;;
789;SDS011;378;48.844;9.156;2023-03-01T06:38:36;33.03;;;14.97;;
789;SDS011;378;48.844;9.156;2023-03-01T06:41:07;37.97;;;16.13;;
789;SDS011;378;48.844;9.156;2023-03-01T06:43:33;32.97;;;15.00;;
789;SDS011;378;48.844;9.156;2023-03-01T06:46:03;32.37;;;13.97;;
789;SDS011;378;48.844;9.156;2023-03-01T06:48:30;32.97;;;14.93;;
789;SDS011;378;48.844;9.156;2023-03-01T06:50:57;31.27;;;14.40;;
789;SDS011;378;48.844;9.156;2023-03-01T06:53:25;33.93;;;14.73;;
789;SDS011;378;48.844;9.156;2023-03-01T06:55:53;31.80;;;14.10;;
789;SDS011;378;48.844;9.156;2023-03-01T06:58:22;30.17;;;14.30;;
789;SDS011;378;48.844;9.156;2023-03-01T07:00:49;29.77;;;14.63;;
789;SDS011;378;48.844;9.156;2023-03-01T07:03:16;32.30;;;14.20;;
789;SDS011;378;48.844;9.156;2023-03-01T07:05:43;35.73;;;14.70;;
789;SDS011;378;48.844;9.156;2023-03-01T07:08:10;30.33;;;14.83;;
789;SDS011;378;48.844;9.156;2023-03-01T07:10:37;33.67;;;15.13;;
789;SDS011;378;48.844;9.156;2023-03-01T07:13:04;35.20;;;18.42;;
789;SDS011;378;48.844;9.156;2023-03-01T07:15:33;35.67;;;17.00;;
789;SDS011;378;48.844;9.156;2023-03-01T07:18:00;35.13;;;14.73;;
789;SDS011;378;48.844;9.156;2023-03-01T07:20:26;38.10;;;15.07;;
789;SDS011;378;48.844;9.156;2023-03-01T07:22:53;31.63;;;13.83;;
789;SDS011;378;48.844;9.156;2023-03-01T07:25:21;37.28;;;18.33;;
789;SDS011;378;48.844;9.156;2023-03-01T07:27:48;33.67;;;15.90;;
789;SDS011;378;48.844;9.156;2023-03-01T07:30:16;32.10;;;15.00;;
789;SDS011;378;48.844;9.156;2023-03-01T07:32:44;41.00;;;15.30;;
789;SDS011;378;48.844;9.156;2023-03-01T07:35:11;32.43;;;14.23;;
789;SDS011;378;48.844;9.156;2023-03-01T07:37:39;32.13;;;15.20;;
789;SDS011;378;48.844;9.156;2023-03-01T07:40:07;36.63;;;15.00;;
789;SDS011;378;48.844;9.156;2023-03-01T07:42:34;30.77;;;13.43;;
789;SDS011;378;48.844;9.156;2023-03-01T07:45:01;35.45;;;17.95;;
789;SDS011;378;48.844;9.156;2023-03-01T07:47:28;38.93;;;15.90;;
789;SDS011;378;48.844;9.156;2023-03-01T07:49:57;31.47;;;14.23;;
789;SDS011;378;48.844;9.156;2023-03-01T07:52:23;29.27;;;14.30;;
789;SDS011;378;48.844;9.156;2023-03-01T07:54:50;34.43;;;14.77;;
789;SDS011;378;48.844;9.156;2023-03-01T07:57:17;33.63;;;16.73;;
789;SDS011;378;48.844;9.156;2023-03-01T07:59:44;33.73;;;14.97;;
789;SDS011;378;48.844;9.156;2023-03-01T08:02:11;34.30;;;15.03;;
789;SDS011;378;48.844;9.156;2023-03-01T08:04:38;29.50;;;13.73;;
789;SDS011;378;48.844;9.156;2023-03-01T08:07:06;34.47;;;14.70;;
789;SDS011;378;48.844;9.156;2023-03-01T08:09:34;27.17;;;14.30;;
789;SDS011;378;48.844;9.156;2023-03-01T08:12:01;32.50;;;13.90;;
789;SDS011;378;48.844;9.156;2023-03-01T08:14:29;41.80;;;14.73;;
789;SDS011;378;48.844;9.156;2023-03-01T08:16:56;31.10;;;15.10;;
789;SDS011;378;48.844;9.156;2023-03-01T08:19:23;30.90;;;14.97;;
789;SDS011;378;48.844;9.156;2023-03-01T08:21:50;29.50;;;13.77;;
789;SDS011;378;48.844;9.156;2023-03-01T08:24:18;30.60;;;14.40;;
789;SDS011;378;48.844;9.156;2023-03-01T08:26:45;31.55;;;13.88;;
789;SDS011;378;48.844;9.156;2023-03-01T08:29:12;29.13;;;14.52;;
789;SDS011;378;48.844;9.156;2023-03-01T08:31:39;28.35;;;14.18;;
789;SDS011;378;48.844;9.156;2023-03-01T08:34:07;29.02;;;13.77;;
789;SDS011;378;48.844;9.156;2023-03-01T08:36:36;28.45;;;15.00;;
789;SDS011;378;48.844;9.156;2023-03-01T08:39:05;29.05;;;14.93;;
789;SDS011;378;48.844;9.156;2023-03-01T08:41:34;30.52;;;14.75;;
789;SDS011;378;48.844;9.156;2023-03-01T08:44:01;25.67;;;13.60;;
789;SDS011;378;48.844;9.156;2023-03-01T08:46:29;28.73;;;14.23;;
789;SDS011;378;48.844;9.156;2023-03-01T08:48:57;28.55;;;14.70;;
789;SDS011;378;48.844;9.156;2023-03-01T08:51:24;34.13;;;14.98;;
789;SDS011;378;48.844;9.156;2023-03-01T08:53:52;29.30;;;14.25;;
789;SDS011;378;48.844;9.156;2023-03-01T08:56:19;30.25;;;15.15;;
789;SDS011;378;48.844;9.156;2023-03-01T08:58:47;22.45;;;12.80;;
789;SDS011;378;48.844;9.156;2023-03-01T09:01:15;27.75;;;14.60;;
789;SDS011;378;48.844;9.156;2023-03-01T09:03:43;25.63;;;14.38;;
789;SDS011;378;48.844;9.156;2023-03-01T09:06:11;28.05;;;14.65;;
789;SDS011;378;48.844;9.156;2023-03-01T09:08:39;29.30;;;15.10;;
789;SDS011;378;48.844;9.156;2023-03-01T09:11:09;25.65;;;14.55;;
789;SDS011;378;48.844;9.156;2023-03-01T09:13:37;28.42;;;14.77;;
789;SDS011;378;48.844;9.156;2023-03-01T09:16:08;26.50;;;14.13;;
789;SDS011;378;48.844;9.156;2023-03-01T09:18:35;33.70;;;15.23;;
789;SDS011;378;48.844;9.156;2023-03-01T09:21:02;29.30;;;16.00;;
789;SDS011;378;48.844;9.156;2023-03-01T09:23:32;27.27;;;14.80;;
789;SDS011;378;48.844;9.156;2023-03-01T09:26:01;27.50;;;14.27;;
789;SDS011;378;48.844;9.156;2023-03-01T09:28:28;31.38;;;15.40;;
789;SDS011;378;48.844;9.156;2023-03-01T09:30:57;34.10;;;15.73;;
789;SDS011;378;48.844;9.156;2023-03-01T09:33:25;25.58;;;14.88;;
789;SDS011;378;48.844;9.156;2023-03-01T09:35:55;29.05;;;14.50;;
789;SDS011;378;48.844;9.156;2023-03-01T09:38:23;32.03;;;14.63;;
789;SDS011;378;48.844;9.156;2023-03-01T09:40:50;29.30;;;15.07;;
789;SDS011;378;48.844;9.156;2023-03-01T09:43:18;26.50;;;14.32;;
789;SDS011;378;48.844;9.156;2023-03-01T09:45:49;27.35;;;15.05;;
789;SDS011;378;48.844;9.156;2023-03-01T09:48:20;27.25;;;14.77;;
789;SDS011;378;48.844;9.156;2023-03-01T09:50:51;30.58;;;15.77;;
789;SDS011;378;48.844;9.156;2023-03-01T09:53:19;27.40;;;14.68;;
789;SDS011;378;48.844;9.156;2023-03-01T09:55:48;27.30;;;14.80;;
789;SDS011;378;48.844;9.156;2023-03-01T09:58:31;26.00;;;14.30;;
789;SDS011;378;48.844;9.156;2023-03-01T10:01:14;28.85;;;14.65;;
789;SDS011;378;48.844;9.156;2023-03-01T10:03:57;28.45;;;14.95;;
789;SDS011;378;48.844;9.156;2023-03-01T10:06:37;30.05;;;14.98;;
789;SDS011;378;48.844;9.156;2023-03-01T10:09:07;40.38;;;16.00;;
789;SDS011;378;48.844;9.156;2023-03-01T10:11:39;26.38;;;15.02;;
789;SDS011;378;48.844;9.156;2023-03-01T10:14:12;26.58;;;14.13;;
789;SDS011;378;48.844;9.156;2023-03-01T10:16:51;26.95;;;15.15;;
789;SDS011;378;48.844;9.156;2023-03-01T10:19:24;30.50;;;15.50;;
789;SDS011;378;48.844;9.156;2023-03-01T10:21:58;31.00;;;15.20;;
789;SDS011;378;48.844;9.156;2023-03-01T10:24:29;26.88;;;14.82;;
789;SDS011;378;48.844;9.156;2023-03-01T10:27:01;29.10;;;15.00;;
789;SDS011;378;48.844;9.156;2023-03-01T10:29:34;24.83;;;14.55;;
789;SDS011;378;48.844;9.156;2023-03-01T10:32:06;28.85;;;14.32;;
789;SDS011;378;48.844;9.156;2023-03-01T10:34:33;29.20;;;14.88;;
789;SDS011;378;48.844;9.156;2023-03-01T10:37:08;28.45;;;13.98;;
789;SDS011;378;48.844;9.156;2023-03-01T10:39:36;27.65;;;13.93;;
789;SDS011;378;48.844;9.156;2023-03-01T10:42:21;34.00;;;15.25;;
789;SDS011;378;48.844;9.156;2023-03-01T10:44:52;29.55;;;14.13;;
789;SDS011;378;48.844;9.156;2023-03-01T10:47:20;32.03;;;14.02;;
789;SDS011;378;48.844;9.156;2023-03-01T10:49:59;29.55;;;14.85;;
789;SDS011;378;48.844;9.156;2023-03-01T10:52:30;32.45;;;13.45;;
789;SDS011;378;48.844;9.156;2023-03-01T10:54:59;26.30;;;13.10;;
789;SDS011;378;48.844;9.156;2023-03-01T10:57:33;28.40;;;13.25;;
789;SDS011;378;48.844;9.156;2023-03-01T11:00:16;29.02;;;13.70;;
789;SDS011;378;48.844;9.156;2023-03-01T11:02:48;28.05;;;13.85;;
789;SDS011;378;48.844;9.156;2023-03-01T11:05:19;30.13;;;14.02;;
789;SDS011;378;48.844;9.156;2023-03-01T11:07:51;25.38;;;12.45;;
789;SDS011;378;48.844;9.156;2023-03-01T11:10:22;29.25;;;13.65;;
789;SDS011;378;48.844;9.156;2023-03-01T11:12:50;26.13;;;13.65;;
789;SDS011;378;48.844;9.156;2023-03-01T11:15:25;26.83;;;13.07;;
789;SDS011;378;48.844;9.156;2023-03-01T11:17:53;26.38;;;13.40;;
789;SDS011;378;48.844;9.156;2023-03-01T11:20:25;25.05;;;12.90;;
789;SDS011;378;48.844;9.156;2023-03-01T11:22:59;25.38;;;12.32;;
789;SDS011;378;48.844;9.156;2023-03-01T11:25:29;30.30;;;13.00;;
789;SDS011;378;48.844;9.156;2023-03-01T11:27:59;25.85;;;13.07;;
789;SDS011;378;48.844;9.156;2023-03-01T11:30:30;22.52;;;11.30;;
789;SDS011;378;48.844;9.156;2023-03-01T11:33:13;24.73;;;11.82;;
789;SDS011;378;48.844;9.156;2023-03-01T11:35:46;25.65;;;12.77;;
789;SDS011;378;48.844;9.156;2023-03-01T11:38:22;23.27;;;11.57;;
789;SDS011;378;48.844;9.156;2023-03-01T11:40:52;23.65;;;11.73;;
789;SDS011;378;48.844;9.156;2023-03-01T11:43:26;23.77;;;12.27;;
789;SDS011;378;48.844;9.156;2023-03-01T11:49:00;23.83;;;12.02;;
789;SDS011;378;48.844;9.156;2023-03-01T11:51:41;25.08;;;11.95;;
789;SDS011;378;48.844;9.156;2023-03-01T11:54:24;25.42;;;11.73;;
789;SDS011;378;48.844;9.156;2023-03-01T11:57:00;21.63;;;11.95;;
789;SDS011;378;48.844;9.156;2023-03-01T11:59:50;25.63;;;12.35;;
789;SDS011;378;48.844;9.156;2023-03-01T12:02:53;27.80;;;12.85;;
789;SDS011;378;48.844;9.156;2023-03-01T12:05:42;25.85;;;12.23;;
789;SDS011;378;48.844;9.156;2023-03-01T12:08:29;22.50;;;12.07;;
789;SDS011;378;48.844;9.156;2023-03-01T12:11:06;26.45;;;12.43;;
789;SDS011;378;48.844;9.156;2023-03-01T12:13:57;25.02;;;12.20;;
789;SDS011;378;48.844;9.156;2023-03-01T12:16:40;26.30;;;12.93;;
789;SDS011;378;48.844;9.156;2023-03-01T12:19:25;27.02;;;12.65;;
789;SDS011;378;48.844;9.156;2023-03-01T12:22:20;24.08;;;12.77;;
789;SDS011;378;48.844;9.156;2023-03-01T12:27:47;24.48;;;12.88;;
789;SDS011;378;48.844;9.156;2023-03-01T12:30:35;27.70;;;12.80;;
789;SDS011;378;48.844;9.156;2023-03-01T12:33:16;27.63;;;13.20;;
789;SDS011;378;48.844;9.156;2023-03-01T12:35:59;21.77;;;12.23;;
789;SDS011;378;48.844;9.156;2023-03-01T12:38:40;23.23;;;12.48;;
789;SDS011;378;48.844;9.156;2023-03-01T12:41:11;29.50;;;13.95;;
789;SDS011;378;48.844;9.156;2023-03-01T12:44:01;25.90;;;13.02;;
789;SDS011;378;48.844;9.156;2023-03-01T12:46:41;27.27;;;13.27;;
789;SDS011;378;48.844;9.156;2023-03-01T12:49:18;23.85;;;12.18;;
789;SDS011;378;48.844;9.156;2023-03-01T12:51:51;24.33;;;12.18;;
789;SDS011;378;48.844;9.156;2023-03-01T12:54:25;27.52;;;12.35;;
789;SDS011;378;48.844;9.156;2023-03-01T12:56:54;26.80;;;13.00;;
789;SDS011;378;48.844;9.156;2023-03-01T12:59:25;26.00;;;12.80;;
789;SDS011;378;48.844;9.156;2023-03-01T13:02:03;26.58;;;12.95;;
789;SDS011;378;48.844;9.156;2023-03-01T13:04:43;23.35;;;12.75;;
789;SDS011;378;48.844;9.156;2023-03-01T13:07:22;27.27;;;12.48;;
789;SDS011;378;48.844;9.156;2023-03-01T13:09:55;28.55;;;12.48;;
789;SDS011;378;48.844;9.156;2023-03-01T13:12:49;25.42;;;13.52;;
789;SDS011;378;48.844;9.156;2023-03-01T13:18:03;22.90;;;12.52;;
789;SDS011;378;48.844;9.156;2023-03-01T13:20:51;24.25;;;12.07;;
789;SDS011;378;48.844;9.156;2023-03-01T13:23:27;22.05;;;12.40;;
789;SDS011;378;48.844;9.156;2023-03-01T13:26:14;29.10;;;13.00;;
789;SDS011;378;48.844;9.156;2023-03-01T13:28:48;21.75;;;12.30;;
789;SDS011;378;48.844;9.156;2023-03-01T13:34:49;25.05;;;12.85;;
789;SDS011;378;48.844;9.156;2023-03-01T13:37:27;25.10;;;12.90;;
789;SDS011;378;48.844;9.156;2023-03-01T13:40:00;26.17;;;13.77;;
789;SDS011;378;48.844;9.156;2023-03-01T13:42:35;26.48;;;13.27;;
789;SDS011;378;48.844;9.156;2023-03-01T13:45:24;23.85;;;13.80;;
789;SDS011;378;48.844;9.156;2023-03-01T13:48:01;23.13;;;13.02;;
789;SDS011;378;48.844;9.156;2023-03-01T13:50:38;27.80;;;13.25;;
789;SDS011;378;48.844;9.156;2023-03-01T13:53:14;26.15;;;12.98;;
789;SDS011;378;48.844;9.156;2023-03-01T13:55:44;22.95;;;12.82;;
789;SDS011;378;48.844;9.156;2023-03-01T13:58:21;25.48;;;13.27;;
789;SDS011;378;48.844;9.156;2023-03-01T14:00:55;26.17;;;13.68;;
789;SDS011;378;48.844;9.156;2023-03-01T14:03:23;26.17;;;13.35;;
789;SDS011;378;48.844;9.156;2023-03-01T14:05:58;28.95;;;14.10;;
789;SDS011;378;48.844;9.156;2023-03-01T14:08:28;26.63;;;13.63;;
789;SDS011;378;48.844;9.156;2023-03-01T14:11:06;26.33;;;13.35;;
789;SDS011;378;48.844;9.156;2023-03-01T14:14:09;27.20;;;14.00;;
789;SDS011;378;48.844;9.156;2023-03-01T14:16:52;23.05;;;13.25;;
789;SDS011;378;48.844;9.156;2023-03-01T14:19:25;33.70;;;14.43;;
789;SDS011;378;48.844;9.156;2023-03-01T14:22:04;29.08;;;14.27;;
789;SDS011;378;48.844;9.156;2023-03-01T14:24:40;28.08;;;14.05;;
789;SDS011;378;48.844;9.156;2023-03-01T14:27:14;26.88;;;13.70;;
789;SDS011;378;48.844;9.156;2023-03-01T14:29:42;28.50;;;14.90;;
789;SDS011;378;48.844;9.156;2023-03-01T14:32:10;29.38;;;14.90;;
789;SDS011;378;48.844;9.156;2023-03-01T14:34:42;27.35;;;13.50;;
789;SDS011;378;48.844;9.156;2023-03-01T14:37:14;27.45;;;13.68;;
789;SDS011;378;48.844;9.156;2023-03-01T14:39:45;28.10;;;13.52;;
789;SDS011;378;48.844;9.156;2023-03-01T14:42:13;27.70;;;13.90;;
789;SDS011;378;48.844;9.156;2023-03-01T14:44:41;29.35;;;13.57;;
789;SDS011;378;48.844;9.156;2023-03-01T14:47:10;32.25;;;14.50;;
789;SDS011;378;48.844;9.156;2023-03-01T14:49:40;25.25;;;13.57;;
789;SDS011;378;48.844;9.156;2023-03-01T14:52:16;27.98;;;13.55;;
789;SDS011;378;48.844;9.156;2023-03-01T14:54:47;26.65;;;12.93;;
789;SDS011;378;48.844;9.156;2023-03-01T14:57:18;31.38;;;14.38;;
789;SDS011;378;48.844;9.156;2023-03-01T14:59:46;26.85;;;14.57;;
789;SDS011;378;48.844;9.156;2023-03-01T15:02:16;31.75;;;14.23;;
789;SDS011;378;48.844;9.156;2023-03-01T15:04:45;32.03;;;14.43;;
789;SDS011;378;48.844;9.156;2023-03-01T15:07:14;27.80;;;14.25;;
789;SDS011;378;48.844;9.156;2023-03-01T15:09:43;28.45;;;13.25;;
789;SDS011;378;48.844;9.156;2023-03-01T15:15:20;30.38;;;14.82;;
789;SDS011;378;48.844;9.156;2023-03-01T15:17:58;27.15;;;13.95;;
789;SDS011;378;48.844;9.156;2023-03-01T15:20:28;28.33;;;13.52;;
789;SDS011;378;48.844;9.156;2023-03-01T15:23:00;29.38;;;14.25;;
789;SDS011;378;48.844;9.156;2023-03-01T15:25:30;25.23;;;13.27;;
789;SDS011;378;48.844;9.156;2023-03-01T15:27:58;25.77;;;14.02;;
789;SDS011;378;48.844;9.156;2023-03-01T15:30:28;23.73;;;13.00;;
789;SDS011;378;48.844;9.156;2023-03-01T15:35:47;23.55;;;12.75;;
789;SDS011;378;48.844;9.156;2023-03-01T15:38:28;29.73;;;13.32;;
789;SDS011;378;48.844;9.156;2023-03-01T15:41:05;27.27;;;13.20;;
789;SDS011;378;48.844;9.156;2023-03-01T15:43:48;25.77;;;13.73;;
789;SDS011;378;48.844;9.156;2023-03-01T15:46:17;30.52;;;13.35;;
789;SDS011;378;48.844;9.156;2023-03-01T15:48:49;27.17;;;13.80;;
789;SDS011;378;48.844;9.156;2023-03-01T15:51:20;29.17;;;13.50;;
789;SDS011;378;48.844;9.156;2023-03-01T15:53:53;26.63;;;13.25;;
789;SDS011;378;48.844;9.156;2023-03-01T15:56:22;29.70;;;13.90;;